Weather History for KGCM - November, 2013

Change the Weather History Date:

Friday, November 15, 2013

  Actual Average (KTUL) Record (KTUL)
Temperature  
Mean Temperature 51 °F 51 °F  
Max Temperature 60 °F 61 °F 82 °F (1950)
Min Temperature 42 °F 40 °F 11 °F (1940)
Degree Days  
Heating Degree Days 14 15  
Month to date heating degree days 176  
Since 1 July heating degree days 362  
Growing Degree Days 1 (Base 50)    
Moisture  
Dew Point 43 °F    
Average Humidity 76    
Maximum Humidity 94    
Minimum Humidity 55    
Precipitation  
Precipitation 0.04 in 0.09 in 2.50 in (1964)
Month to date precipitation 1.57  
Year to date precipitation 37.24  
Sea Level Pressure  
Sea Level Pressure 29.94 in    
Wind  
Wind Speed 9 mph (SSE)    
Max Wind Speed 17 mph    
Max Gust Speed 23 mph    
Visibility 10 miles    
Events Rain    
T = Trace of Precipitation, MM = Missing Value Source: NWS Daily Summary

Daily Weather History Graph

Daily Weather History Graph

Search for Another Location

Airport or City:

Trip Planner

Search our weather history database for the weather conditions in past years. The results will help you decide how hot, cold, wet, or windy it might be!

Date:

Astronomy

Nov. 15, 2013 Rise Set
Actual Time 6:59 AM CST 5:13 PM CST
Civil Twilight 6:31 AM CST 5:40 PM CST
Nautical Twilight 6:00 AM CST 6:11 PM CST
Astronomical Twilight 5:30 AM CST 6:42 PM CST
Moon 4:08 PM CST (11/15) 4:59 AM CST (11/15)
Length of Visible Light 11h 09m
Length of Day
10h 14m
Waxing Gibbous, 96% of the Moon is Illuminated
Nov 15
Waxing Gibbous
Nov 17
Full
Nov 25
Last Quarter
Dec 2
New
Dec 9
First Quarter

Hourly Weather History & Observations

Time (CST) Temp. Windchill Dew Point Humidity Pressure Visibility Wind Dir Wind Speed Gust Speed Precip Events Conditions
12:15 AM 44.6 °F 41.4 °F 33.8 °F 66% 30.06 in 10.0 mi South 5.8 mph - N/A   Mostly Cloudy
12:55 AM 44.6 °F 42.2 °F 33.8 °F 66% 30.05 in 10.0 mi SSE 4.6 mph - N/A   Scattered Clouds
1:15 AM 44.6 °F 41.4 °F 33.8 °F 66% 30.04 in 10.0 mi SSE 5.8 mph - N/A   Scattered Clouds
1:35 AM 44.6 °F 41.4 °F 33.8 °F 66% 30.04 in 10.0 mi SSE 5.8 mph - N/A   Scattered Clouds
1:55 AM 44.6 °F 42.2 °F 33.8 °F 66% 30.03 in 10.0 mi SSE 4.6 mph - N/A   Mostly Cloudy
2:15 AM 44.6 °F 41.4 °F 33.8 °F 66% 30.03 in 10.0 mi South 5.8 mph - N/A   Overcast
2:35 AM 44.6 °F 42.2 °F 37.4 °F 76% 30.03 in 10.0 mi South 4.6 mph - N/A Rain Light Rain
2:55 AM 42.8 °F 40.1 °F 37.4 °F 81% 30.03 in 10.0 mi South 4.6 mph - 0.01 in Rain Light Rain
3:15 AM 42.8 °F 41.1 °F 37.4 °F 81% 30.02 in 10.0 mi SSE 3.5 mph - N/A   Light Drizzle
3:35 AM 42.8 °F 40.1 °F 37.4 °F 81% 30.01 in 10.0 mi SSE 4.6 mph - N/A   Overcast
3:55 AM 42.8 °F 40.1 °F 37.4 °F 81% 30.01 in 10.0 mi SSE 4.6 mph - N/A   Drizzle
4:15 AM 42.8 °F 38.6 °F 37.4 °F 81% 30.01 in 10.0 mi South 6.9 mph - N/A   Light Drizzle
4:35 AM 42.8 °F 40.1 °F 37.4 °F 81% 30.01 in 10.0 mi South 4.6 mph - N/A   Overcast
4:55 AM 42.8 °F 38.6 °F 37.4 °F 81% 30.01 in 10.0 mi SSE 6.9 mph - N/A   Overcast
5:15 AM 42.8 °F 38.0 °F 37.4 °F 81% 30.01 in 10.0 mi SSE 8.1 mph - 0.01 in Rain Rain
5:35 AM 42.8 °F 37.5 °F 39.2 °F 87% 30.00 in 7.0 mi SSE 9.2 mph - 0.02 in Rain Light Rain
5:55 AM 42.8 °F 37.0 °F 39.2 °F 87% 30.00 in 10.0 mi SSE 10.4 mph - 0.03 in Rain Light Rain
6:15 AM 42.8 °F 38.6 °F 41.0 °F 93% 30.00 in 10.0 mi SSE 6.9 mph - N/A   Overcast
6:35 AM 42.8 °F 38.6 °F 41.0 °F 93% 30.00 in 10.0 mi SSE 6.9 mph - N/A   Mostly Cloudy
6:55 AM 42.8 °F 38.6 °F 41.0 °F 93% 30.00 in 10.0 mi SSE 6.9 mph - N/A   Mostly Cloudy
7:15 AM 42.8 °F 38.6 °F 41.0 °F 93% 30.00 in 7.0 mi SE 6.9 mph - N/A   Scattered Clouds
7:35 AM 42.8 °F 38.0 °F 41.0 °F 93% 30.00 in 7.0 mi SE 8.1 mph - N/A   Scattered Clouds
7:55 AM 42.8 °F 38.0 °F 41.0 °F 93% 30.00 in 10.0 mi SE 8.1 mph - N/A   Scattered Clouds
8:15 AM 42.8 °F 38.0 °F 41.0 °F 93% 30.00 in 10.0 mi SE 8.1 mph - N/A   Clear
8:35 AM 44.6 °F 39.2 °F 41.0 °F 87% 30.00 in 10.0 mi SSE 10.4 mph - N/A   Clear
8:55 AM 46.4 °F 42.4 °F 42.8 °F 87% 30.01 in 10.0 mi SSE 8.1 mph - N/A   Clear
9:15 AM 48.2 °F - 42.8 °F 82% 30.01 in 10.0 mi SSE 5.8 mph - N/A   Clear
9:35 AM 50.0 °F - 42.8 °F 76% 30.00 in 10.0 mi SSE 10.4 mph 17.3 mph N/A   Clear
9:55 AM 51.8 °F - 42.8 °F 71% 30.00 in 10.0 mi SSE 9.2 mph - N/A   Clear
10:15 AM 53.6 °F - 44.6 °F 72% 29.99 in 10.0 mi South 13.8 mph 20.7 mph N/A   Clear
10:35 AM 53.6 °F - 44.6 °F 72% 29.99 in 10.0 mi South 15.0 mph 20.7 mph N/A   Clear
10:55 AM 55.4 °F - 44.6 °F 67% 29.99 in 10.0 mi South 16.1 mph 20.7 mph N/A   Clear
11:15 AM 55.4 °F - 44.6 °F 67% 29.99 in 10.0 mi South 16.1 mph 23.0 mph N/A   Clear
11:35 AM 55.4 °F - 44.6 °F 67% 29.97 in 10.0 mi South 16.1 mph 20.7 mph N/A   Clear
11:55 AM 59.0 °F - 44.6 °F 59% 29.96 in 10.0 mi South 13.8 mph 20.7 mph N/A   Clear
12:15 PM 59.0 °F - 46.4 °F 63% 29.95 in 10.0 mi South 12.7 mph 18.4 mph N/A   Clear
12:35 PM 59.0 °F - 46.4 °F 63% 29.93 in 10.0 mi South 12.7 mph - N/A   Scattered Clouds
12:55 PM 60.8 °F - 46.4 °F 59% 29.92 in 10.0 mi South 15.0 mph 18.4 mph N/A   Scattered Clouds
1:15 PM 60.8 °F - 46.4 °F 59% 29.93 in 10.0 mi South 16.1 mph 19.6 mph N/A   Clear
1:55 PM 60.8 °F - 46.4 °F 59% 29.92 in 10.0 mi SSW 17.3 mph 21.9 mph N/A   Scattered Clouds
2:15 PM 60.8 °F - 46.4 °F 59% 29.91 in 10.0 mi South 13.8 mph - N/A   Scattered Clouds
2:35 PM 60.8 °F - 46.4 °F 59% 29.89 in 10.0 mi South 10.4 mph - N/A   Clear
2:55 PM 60.8 °F - 46.4 °F 59% 29.88 in 10.0 mi South 13.8 mph 18.4 mph N/A   Clear
3:15 PM 60.8 °F - 46.4 °F 59% 29.88 in 10.0 mi South 11.5 mph 21.9 mph N/A   Clear
3:35 PM 60.8 °F - 46.4 °F 59% 29.89 in 10.0 mi South 12.7 mph 19.6 mph N/A   Clear
3:55 PM 60.8 °F - 44.6 °F 55% 29.88 in 10.0 mi South 15.0 mph 18.4 mph N/A   Clear
4:15 PM 60.8 °F - 44.6 °F 55% 29.86 in 10.0 mi SSE 13.8 mph 19.6 mph N/A   Clear
4:35 PM 60.8 °F - 44.6 °F 55% 29.85 in 10.0 mi South 8.1 mph - N/A   Clear
4:55 PM 59.0 °F - 46.4 °F 63% 29.84 in 10.0 mi South 9.2 mph - N/A   Clear
5:15 PM 55.4 °F - 44.6 °F 67% 29.85 in 10.0 mi South 6.9 mph - N/A   Clear
5:35 PM 53.6 °F - 44.6 °F 72% 29.85 in 10.0 mi South 9.2 mph - N/A   Clear
5:55 PM 53.6 °F - 44.6 °F 72% 29.86 in 10.0 mi South 11.5 mph - N/A   Clear
6:15 PM 53.6 °F - 44.6 °F 72% 29.87 in 10.0 mi South 9.2 mph - N/A   Clear
6:35 PM 53.6 °F - 44.6 °F 72% 29.86 in 10.0 mi SSE 15.0 mph 20.7 mph N/A   Clear
6:55 PM 51.8 °F - 46.4 °F 82% 29.87 in 10.0 mi SSE 15.0 mph 19.6 mph N/A   Clear
7:15 PM 51.8 °F - 46.4 °F 82% 29.86 in 10.0 mi SSE 11.5 mph - N/A   Clear
7:35 PM 50.0 °F - 46.4 °F 87% 29.86 in 10.0 mi SSE 11.5 mph - N/A   Clear
7:55 PM 50.0 °F - 46.4 °F 87% 29.86 in 10.0 mi SSE 10.4 mph 17.3 mph N/A   Clear
8:15 PM 50.0 °F - 46.4 °F 87% 29.87 in 7.0 mi SSE 12.7 mph 16.1 mph N/A   Clear
8:35 PM 50.0 °F - 46.4 °F 87% 29.87 in 7.0 mi SSE 11.5 mph - N/A   Clear
8:55 PM 50.0 °F - 46.4 °F 87% 29.86 in 7.0 mi SSE 11.5 mph - N/A   Clear
9:15 PM 50.0 °F - 46.4 °F 87% 29.87 in 7.0 mi SSE 12.7 mph 18.4 mph N/A   Clear
9:35 PM 50.0 °F - 46.4 °F 87% 29.87 in 10.0 mi SSE 12.7 mph 17.3 mph N/A   Clear
9:55 PM 51.8 °F - 46.4 °F 82% 29.86 in 10.0 mi SSE 12.7 mph 17.3 mph N/A   Clear
10:15 PM 51.8 °F - 46.4 °F 82% 29.86 in 10.0 mi SSE 12.7 mph 17.3 mph N/A   Clear
10:35 PM 51.8 °F - 48.2 °F 88% 29.85 in 10.0 mi SSE 16.1 mph 21.9 mph N/A   Clear
10:55 PM 51.8 °F - 48.2 °F 88% 29.85 in 10.0 mi SSE 12.7 mph 18.4 mph N/A   Clear
11:15 PM 51.8 °F - 48.2 °F 88% 29.85 in 7.0 mi SSE 11.5 mph 18.4 mph N/A   Clear
11:35 PM 51.8 °F - 50.0 °F 94% 29.85 in 10.0 mi South 9.2 mph - N/A   Mostly Cloudy
11:55 PM 53.6 °F - 50.0 °F 88% 29.85 in 7.0 mi South 10.4 mph - N/A   Overcast